Terminal Aerodrome Forecast
Issued by NWS Lake Charles, LA

Home | Current Version | Previous Version | Text Only | Print | Product List | Glossary On
Versions: 1 2 3 4 5 6 7 8 9 10 11 12 13 14 15 16 17
000
FTUS44 KLCH 271411 AAA
TAFARA
TAF AMD
KARA 271411Z 2714/2812 15004KT P6SM VCSH OVC020
     FM271600 15007G15KT P6SM BKN025
     FM280000 15007KT P6SM SCT015=

USA.gov is the U.S. government's official web portal to all federal, state and local government web resources and services.